Aviation Digital Data Service (ADDS)

Output produced by METARs form (0936 UTC 07 December 2022)
found at http://www.aviationweather.gov/metar/data/
 
METAR text: UAAA 070930Z 36003MPS 2800 BR OVC015 M05/M07 Q1027 NOSIG
Conditions at: UAAA (ALMA-ATA , KZ) observed 0930 UTC 07 December 2022
Temperature: -5.0°C (23°F)
Dewpoint: -7.0°C (19°F) [RH = 86%]
Pressure (altimeter): 30.32 inches Hg (1027.0 mb)
Winds: from the N (360 degrees) at 7 MPH (6 knots; 3.1 m/s)
Visibility: 1.74 miles (2.80 km)
Ceiling: 1500 feet AGL
Clouds: overcast cloud deck at 1500 feet AGL
Weather: BR  (mist)

METAR text: UAAA 070900Z 03002MPS 3500 BR OVC011 M05/M07 Q1027 NOSIG
Conditions at: UAAA (ALMA-ATA , KZ) observed 0900 UTC 07 December 2022
Temperature: -5.0°C (23°F)
Dewpoint: -7.0°C (19°F) [RH = 86%]
Pressure (altimeter): 30.32 inches Hg (1027.0 mb)
Winds: from the NNE (30 degrees) at 5 MPH (4 knots; 2.1 m/s)
Visibility: 2.17 miles (3.49 km)
Ceiling: 1100 feet AGL
Clouds: overcast cloud deck at 1100 feet AGL
Weather: BR  (mist)

METAR text: UAAA 070830Z 04002MPS 3500 BR OVC011 M04/M06 Q1027 NOSIG
Conditions at: UAAA (ALMA-ATA , KZ) observed 0830 UTC 07 December 2022
Temperature: -4.0°C (25°F)
Dewpoint: -6.0°C (21°F) [RH = 86%]
Pressure (altimeter): 30.32 inches Hg (1027.0 mb)
Winds: from the NE (40 degrees) at 5 MPH (4 knots; 2.1 m/s)
Visibility: 2.17 miles (3.49 km)
Ceiling: 1100 feet AGL
Clouds: overcast cloud deck at 1100 feet AGL
Weather: BR  (mist)

METAR text: UAAA 070800Z 03002MPS 3500 BR OVC011 M04/M07 Q1028 NOSIG
Conditions at: UAAA (ALMA-ATA , KZ) observed 0800 UTC 07 December 2022
Temperature: -4.0°C (25°F)
Dewpoint: -7.0°C (19°F) [RH = 80%]
Pressure (altimeter): 30.35 inches Hg (1028.0 mb)
Winds: from the NNE (30 degrees) at 5 MPH (4 knots; 2.1 m/s)
Visibility: 2.17 miles (3.49 km)
Ceiling: 1100 feet AGL
Clouds: overcast cloud deck at 1100 feet AGL
Weather: BR  (mist)

METAR text: UAAA 070730Z 03003MPS 2200 BR OVC011 M05/M07 Q1028 NOSIG
Conditions at: UAAA (ALMA-ATA , KZ) observed 0730 UTC 07 December 2022
Temperature: -5.0°C (23°F)
Dewpoint: -7.0°C (19°F) [RH = 86%]
Pressure (altimeter): 30.35 inches Hg (1028.0 mb)
Winds: from the NNE (30 degrees) at 7 MPH (6 knots; 3.1 m/s)
Visibility: 1.37 miles (2.20 km)
Ceiling: 1100 feet AGL
Clouds: overcast cloud deck at 1100 feet AGL
Weather: BR  (mist)

METAR text: UAAA 070700Z 01002MPS 2300 BR OVC011 M05/M07 Q1028 NOSIG
Conditions at: UAAA (ALMA-ATA , KZ) observed 0700 UTC 07 December 2022
Temperature: -5.0°C (23°F)
Dewpoint: -7.0°C (19°F) [RH = 86%]
Pressure (altimeter): 30.35 inches Hg (1028.0 mb)
Winds: from the N (10 degrees) at 5 MPH (4 knots; 2.1 m/s)
Visibility: 1.43 miles (2.30 km)
Ceiling: 1100 feet AGL
Clouds: overcast cloud deck at 1100 feet AGL
Weather: BR  (mist)

METAR text: UAAA 070630Z VRB01MPS 3500 BR OVC010 M04/M07 Q1028 NOSIG
Conditions at: UAAA (ALMA-ATA , KZ) observed 0630 UTC 07 December 2022
Temperature: -4.0°C (25°F)
Dewpoint: -7.0°C (19°F) [RH = 80%]
Pressure (altimeter): 30.35 inches Hg (1028.0 mb)
Winds: variable direction winds at 2 MPH (2 knots; 1.0 m/s)
Visibility: 2.17 miles (3.49 km)
Ceiling: 1000 feet AGL
Clouds: overcast cloud deck at 1000 feet AGL
Weather: BR  (mist)

METAR text: UAAA 070600Z VRB01MPS 2800 BR BKN010 OVC026 M04/M07 Q1028 NOSIG
Conditions at: UAAA (ALMA-ATA , KZ) observed 0600 UTC 07 December 2022
Temperature: -4.0°C (25°F)
Dewpoint: -7.0°C (19°F) [RH = 80%]
Pressure (altimeter): 30.35 inches Hg (1028.0 mb)
Winds: variable direction winds at 2 MPH (2 knots; 1.0 m/s)
Visibility: 1.74 miles (2.80 km)
Ceiling: 1000 feet AGL
Clouds: broken clouds at 1000 feet AGL
overcast cloud deck at 2600 feet AGL
Weather: BR  (mist)

METAR text: UAAA 070530Z 02002MPS 340V040 2400 BR BKN009 OVC026 M05/M06 Q1029 NOSIG
Conditions at: UAAA (ALMA-ATA , KZ) observed 0530 UTC 07 December 2022
Temperature: -5.0°C (23°F)
Dewpoint: -6.0°C (21°F) [RH = 93%]
Pressure (altimeter): 30.38 inches Hg (1029.0 mb)
Winds: from the NNE (20 degrees) at 5 MPH (4 knots; 2.1 m/s)
Visibility: 1.49 miles (2.40 km)
Ceiling: 900 feet AGL
Clouds: broken clouds at 900 feet AGL
overcast cloud deck at 2600 feet AGL
Weather: BR  (mist)

METAR text: UAAA 070500Z 35002MPS 3300 BR BKN007 OVC026 M05/M06 Q1029 NOSIG
Conditions at: UAAA (ALMA-ATA , KZ) observed 0500 UTC 07 December 2022
Temperature: -5.0°C (23°F)
Dewpoint: -6.0°C (21°F) [RH = 93%]
Pressure (altimeter): 30.38 inches Hg (1029.0 mb)
Winds: from the N (350 degrees) at 5 MPH (4 knots; 2.1 m/s)
Visibility: 2.05 miles (3.30 km)
Ceiling: 700 feet AGL
Clouds: broken clouds at 700 feet AGL
overcast cloud deck at 2600 feet AGL
Weather: BR  (mist)

METAR text: UAAA 070430Z 35002MPS 2600 BR BKN011 OVC026 M05/M06 Q1029 NOSIG
Conditions at: UAAA (ALMA-ATA , KZ) observed 0430 UTC 07 December 2022
Temperature: -5.0°C (23°F)
Dewpoint: -6.0°C (21°F) [RH = 93%]
Pressure (altimeter): 30.38 inches Hg (1029.0 mb)
Winds: from the N (350 degrees) at 5 MPH (4 knots; 2.1 m/s)
Visibility: 1.62 miles (2.61 km)
Ceiling: 1100 feet AGL
Clouds: broken clouds at 1100 feet AGL
overcast cloud deck at 2600 feet AGL
Weather: BR  (mist)

METAR text: UAAA 070400Z 01002MPS 2200 BR OVC008 M05/M06 Q1029 NOSIG
Conditions at: UAAA (ALMA-ATA , KZ) observed 0400 UTC 07 December 2022
Temperature: -5.0°C (23°F)
Dewpoint: -6.0°C (21°F) [RH = 93%]
Pressure (altimeter): 30.38 inches Hg (1029.0 mb)
Winds: from the N (10 degrees) at 5 MPH (4 knots; 2.1 m/s)
Visibility: 1.37 miles (2.20 km)
Ceiling: 800 feet AGL
Clouds: overcast cloud deck at 800 feet AGL
Weather: BR  (mist)

METAR text: UAAA 070330Z 01002MPS 2200 BR OVC008 M05/M07 Q1029 NOSIG
Conditions at: UAAA (ALMA-ATA , KZ) observed 0330 UTC 07 December 2022
Temperature: -5.0°C (23°F)
Dewpoint: -7.0°C (19°F) [RH = 86%]
Pressure (altimeter): 30.38 inches Hg (1029.0 mb)
Winds: from the N (10 degrees) at 5 MPH (4 knots; 2.1 m/s)
Visibility: 1.37 miles (2.20 km)
Ceiling: 800 feet AGL
Clouds: overcast cloud deck at 800 feet AGL
Weather: BR  (mist)

METAR text: UAAA 070300Z 36002MPS 320V030 2800 BR OVC006 M05/M07 Q1029 NOSIG RMK QBB200
Conditions at: UAAA (ALMA-ATA , KZ) observed 0300 UTC 07 December 2022
Temperature: -5.0°C (23°F)
Dewpoint: -7.0°C (19°F) [RH = 86%]
Pressure (altimeter): 30.38 inches Hg (1029.0 mb)
Winds: from the N (360 degrees) at 5 MPH (4 knots; 2.1 m/s)
Visibility: 1.74 miles (2.80 km)
Ceiling: 600 feet AGL
Clouds: overcast cloud deck at 600 feet AGL
Weather: BR  (mist)

METAR text: UAAA 070230Z VRB01MPS 2700 BR OVC006 M06/M07 Q1029 NOSIG RMK QBB200
Conditions at: UAAA (ALMA-ATA , KZ) observed 0230 UTC 07 December 2022
Temperature: -6.0°C (21°F)
Dewpoint: -7.0°C (19°F) [RH = 93%]
Pressure (altimeter): 30.38 inches Hg (1029.0 mb)
Winds: variable direction winds at 2 MPH (2 knots; 1.0 m/s)
Visibility: 1.68 miles (2.70 km)
Ceiling: 600 feet AGL
Clouds: overcast cloud deck at 600 feet AGL
Weather: BR  (mist)

METAR text: UAAA 070200Z VRB01MPS 2100 BR OVC007 M06/M07 Q1029 NOSIG
Conditions at: UAAA (ALMA-ATA , KZ) observed 0200 UTC 07 December 2022
Temperature: -6.0°C (21°F)
Dewpoint: -7.0°C (19°F) [RH = 93%]
Pressure (altimeter): 30.38 inches Hg (1029.0 mb)
Winds: variable direction winds at 2 MPH (2 knots; 1.0 m/s)
Visibility: 1.30 miles (2.09 km)
Ceiling: 700 feet AGL
Clouds: overcast cloud deck at 700 feet AGL
Weather: BR  (mist)

METAR text: UAAA 070130Z 06001MPS 2300 BR OVC006 M06/M07 Q1029 NOSIG RMK QBB200
Conditions at: UAAA (ALMA-ATA , KZ) observed 0130 UTC 07 December 2022
Temperature: -6.0°C (21°F)
Dewpoint: -7.0°C (19°F) [RH = 93%]
Pressure (altimeter): 30.38 inches Hg (1029.0 mb)
Winds: from the ENE (60 degrees) at 2 MPH (2 knots; 1.0 m/s)
Visibility: 1.43 miles (2.30 km)
Ceiling: 600 feet AGL
Clouds: overcast cloud deck at 600 feet AGL
Weather: BR  (mist)

METAR text: UAAA 070109Z 02002MPS 2600 BR OVC006 M06/M07 Q1029 NOSIG RMK QBB180
Conditions at: UAAA (ALMA-ATA , KZ) observed 0109 UTC 07 December 2022
Temperature: -6.0°C (21°F)
Dewpoint: -7.0°C (19°F) [RH = 93%]
Pressure (altimeter): 30.38 inches Hg (1029.0 mb)
Winds: from the NNE (20 degrees) at 5 MPH (4 knots; 2.1 m/s)
Visibility: 1.62 miles (2.61 km)
Ceiling: 600 feet AGL
Clouds: overcast cloud deck at 600 feet AGL
Weather: BR  (mist)

METAR text: UAAA 070100Z 30001MPS 4000 BR OVC012 M06/M07 Q1029 NOSIG
Conditions at: UAAA (ALMA-ATA , KZ) observed 0100 UTC 07 December 2022
Temperature: -6.0°C (21°F)
Dewpoint: -7.0°C (19°F) [RH = 93%]
Pressure (altimeter): 30.38 inches Hg (1029.0 mb)
Winds: from the WNW (300 degrees) at 2 MPH (2 knots; 1.0 m/s)
Visibility: 2.49 miles (4.01 km)
Ceiling: 1200 feet AGL
Clouds: overcast cloud deck at 1200 feet AGL
Weather: BR  (mist)

METAR text: UAAA 070030Z VRB01MPS 4200 BR OVC011 M06/M07 Q1029 NOSIG
Conditions at: UAAA (ALMA-ATA , KZ) observed 0030 UTC 07 December 2022
Temperature: -6.0°C (21°F)
Dewpoint: -7.0°C (19°F) [RH = 93%]
Pressure (altimeter): 30.38 inches Hg (1029.0 mb)
Winds: variable direction winds at 2 MPH (2 knots; 1.0 m/s)
Visibility: 2.61 miles (4.20 km)
Ceiling: 1100 feet AGL
Clouds: overcast cloud deck at 1100 feet AGL
Weather: BR  (mist)

METAR text: UAAA 070000Z VRB01MPS 4200 BR OVC011 M06/M07 Q1029 NOSIG
Conditions at: UAAA (ALMA-ATA , KZ) observed 0000 UTC 07 December 2022
Temperature: -6.0°C (21°F)
Dewpoint: -7.0°C (19°F) [RH = 93%]
Pressure (altimeter): 30.38 inches Hg (1029.0 mb)
Winds: variable direction winds at 2 MPH (2 knots; 1.0 m/s)
Visibility: 2.61 miles (4.20 km)
Ceiling: 1100 feet AGL
Clouds: overcast cloud deck at 1100 feet AGL
Weather: BR  (mist)

METAR text: UAAA 062330Z 32001MPS 4500 BR OVC011 M06/M07 Q1029 NOSIG
Conditions at: UAAA (ALMA-ATA , KZ) observed 2330 UTC 06 December 2022
Temperature: -6.0°C (21°F)
Dewpoint: -7.0°C (19°F) [RH = 93%]
Pressure (altimeter): 30.38 inches Hg (1029.0 mb)
Winds: from the NW (320 degrees) at 2 MPH (2 knots; 1.0 m/s)
Visibility: 2.80 miles (4.51 km)
Ceiling: 1100 feet AGL
Clouds: overcast cloud deck at 1100 feet AGL
Weather: BR  (mist)

METAR text: UAAA 062300Z VRB01MPS 4300 BR OVC010 M06/M07 Q1029 NOSIG
Conditions at: UAAA (ALMA-ATA , KZ) observed 2300 UTC 06 December 2022
Temperature: -6.0°C (21°F)
Dewpoint: -7.0°C (19°F) [RH = 93%]
Pressure (altimeter): 30.38 inches Hg (1029.0 mb)
Winds: variable direction winds at 2 MPH (2 knots; 1.0 m/s)
Visibility: 2.67 miles (4.30 km)
Ceiling: 1000 feet AGL
Clouds: overcast cloud deck at 1000 feet AGL
Weather: BR  (mist)

METAR text: UAAA 062230Z VRB01MPS 4300 BR OVC010 M06/M07 Q1029 NOSIG
Conditions at: UAAA (ALMA-ATA , KZ) observed 2230 UTC 06 December 2022
Temperature: -6.0°C (21°F)
Dewpoint: -7.0°C (19°F) [RH = 93%]
Pressure (altimeter): 30.38 inches Hg (1029.0 mb)
Winds: variable direction winds at 2 MPH (2 knots; 1.0 m/s)
Visibility: 2.67 miles (4.30 km)
Ceiling: 1000 feet AGL
Clouds: overcast cloud deck at 1000 feet AGL
Weather: BR  (mist)

METAR text: UAAA 062200Z 31001MPS 3500 BR BKN008 OVC050 M06/M07 Q1029 NOSIG
Conditions at: UAAA (ALMA-ATA , KZ) observed 2200 UTC 06 December 2022
Temperature: -6.0°C (21°F)
Dewpoint: -7.0°C (19°F) [RH = 93%]
Pressure (altimeter): 30.38 inches Hg (1029.0 mb)
Winds: from the NW (310 degrees) at 2 MPH (2 knots; 1.0 m/s)
Visibility: 2.17 miles (3.49 km)
Ceiling: 800 feet AGL
Clouds: broken clouds at 800 feet AGL
overcast cloud deck at 5000 feet AGL
Weather: BR  (mist)

METAR text: UAAA 062130Z 33001MPS 3500 BR BKN008 OVC050 M06/M07 Q1029 NOSIG
Conditions at: UAAA (ALMA-ATA , KZ) observed 2130 UTC 06 December 2022
Temperature: -6.0°C (21°F)
Dewpoint: -7.0°C (19°F) [RH = 93%]
Pressure (altimeter): 30.38 inches Hg (1029.0 mb)
Winds: from the NNW (330 degrees) at 2 MPH (2 knots; 1.0 m/s)
Visibility: 2.17 miles (3.49 km)
Ceiling: 800 feet AGL
Clouds: broken clouds at 800 feet AGL
overcast cloud deck at 5000 feet AGL
Weather: BR  (mist)

METAR text: UAAA 062100Z 34002MPS 3100 BR BKN010 OVC050 M06/M07 Q1029 NOSIG
Conditions at: UAAA (ALMA-ATA , KZ) observed 2100 UTC 06 December 2022
Temperature: -6.0°C (21°F)
Dewpoint: -7.0°C (19°F) [RH = 93%]
Pressure (altimeter): 30.38 inches Hg (1029.0 mb)
Winds: from the NNW (340 degrees) at 5 MPH (4 knots; 2.1 m/s)
Visibility: 1.93 miles (3.11 km)
Ceiling: 1000 feet AGL
Clouds: broken clouds at 1000 feet AGL
overcast cloud deck at 5000 feet AGL
Weather: BR  (mist)

METAR text: UAAA 062030Z VRB01MPS 3300 BR BKN010 OVC050 M06/M07 Q1029 NOSIG
Conditions at: UAAA (ALMA-ATA , KZ) observed 2030 UTC 06 December 2022
Temperature: -6.0°C (21°F)
Dewpoint: -7.0°C (19°F) [RH = 93%]
Pressure (altimeter): 30.38 inches Hg (1029.0 mb)
Winds: variable direction winds at 2 MPH (2 knots; 1.0 m/s)
Visibility: 2.05 miles (3.30 km)
Ceiling: 1000 feet AGL
Clouds: broken clouds at 1000 feet AGL
overcast cloud deck at 5000 feet AGL
Weather: BR  (mist)

METAR text: UAAA 062000Z VRB01MPS 3600 BR BKN011 OVC050 M06/M07 Q1029 NOSIG
Conditions at: UAAA (ALMA-ATA , KZ) observed 2000 UTC 06 December 2022
Temperature: -6.0°C (21°F)
Dewpoint: -7.0°C (19°F) [RH = 93%]
Pressure (altimeter): 30.38 inches Hg (1029.0 mb)
Winds: variable direction winds at 2 MPH (2 knots; 1.0 m/s)
Visibility: 2.24 miles (3.60 km)
Ceiling: 1100 feet AGL
Clouds: broken clouds at 1100 feet AGL
overcast cloud deck at 5000 feet AGL
Weather: BR  (mist)

METAR text: UAAA 061930Z 24001MPS 4000 BR BKN011 OVC050 M06/M07 Q1029 NOSIG
Conditions at: UAAA (ALMA-ATA , KZ) observed 1930 UTC 06 December 2022
Temperature: -6.0°C (21°F)
Dewpoint: -7.0°C (19°F) [RH = 93%]
Pressure (altimeter): 30.38 inches Hg (1029.0 mb)
Winds: from the WSW (240 degrees) at 2 MPH (2 knots; 1.0 m/s)
Visibility: 2.49 miles (4.01 km)
Ceiling: 1100 feet AGL
Clouds: broken clouds at 1100 feet AGL
overcast cloud deck at 5000 feet AGL
Weather: BR  (mist)

METAR text: UAAA 061900Z VRB01MPS 4000 BR BKN011 OVC050 M06/M07 Q1029 NOSIG
Conditions at: UAAA (ALMA-ATA , KZ) observed 1900 UTC 06 December 2022
Temperature: -6.0°C (21°F)
Dewpoint: -7.0°C (19°F) [RH = 93%]
Pressure (altimeter): 30.38 inches Hg (1029.0 mb)
Winds: variable direction winds at 2 MPH (2 knots; 1.0 m/s)
Visibility: 2.49 miles (4.01 km)
Ceiling: 1100 feet AGL
Clouds: broken clouds at 1100 feet AGL
overcast cloud deck at 5000 feet AGL
Weather: BR  (mist)

METAR text: UAAA 061830Z VRB01MPS 4400 BR BKN009 OVC050 M06/M07 Q1030 NOSIG
Conditions at: UAAA (ALMA-ATA , KZ) observed 1830 UTC 06 December 2022
Temperature: -6.0°C (21°F)
Dewpoint: -7.0°C (19°F) [RH = 93%]
Pressure (altimeter): 30.41 inches Hg (1030.0 mb)
Winds: variable direction winds at 2 MPH (2 knots; 1.0 m/s)
Visibility: 2.73 miles (4.39 km)
Ceiling: 900 feet AGL
Clouds: broken clouds at 900 feet AGL
overcast cloud deck at 5000 feet AGL
Weather: BR  (mist)

METAR text: UAAA 061800Z 30002MPS 5000 BR BKN009 OVC050 M06/M07 Q1030 NOSIG
Conditions at: UAAA (ALMA-ATA , KZ) observed 1800 UTC 06 December 2022
Temperature: -6.0°C (21°F)
Dewpoint: -7.0°C (19°F) [RH = 93%]
Pressure (altimeter): 30.41 inches Hg (1030.0 mb)
Winds: from the WNW (300 degrees) at 5 MPH (4 knots; 2.1 m/s)
Visibility: 3 miles ( 5 km)
Ceiling: 900 feet AGL
Clouds: broken clouds at 900 feet AGL
overcast cloud deck at 5000 feet AGL
Weather: BR  (mist)

METAR text: UAAA 061730Z 30002MPS 260V020 3500 BR BKN009 OVC050 M06/M07 Q1030 NOSIG
Conditions at: UAAA (ALMA-ATA , KZ) observed 1730 UTC 06 December 2022
Temperature: -6.0°C (21°F)
Dewpoint: -7.0°C (19°F) [RH = 93%]
Pressure (altimeter): 30.41 inches Hg (1030.0 mb)
Winds: from the WNW (300 degrees) at 5 MPH (4 knots; 2.1 m/s)
Visibility: 2.17 miles (3.49 km)
Ceiling: 900 feet AGL
Clouds: broken clouds at 900 feet AGL
overcast cloud deck at 5000 feet AGL
Weather: BR  (mist)

METAR text: UAAA 061700Z 35002MPS 2800 BR FU BKN010 OVC050 M06/M07 Q1030 NOSIG
Conditions at: UAAA (ALMA-ATA , KZ) observed 1700 UTC 06 December 2022
Temperature: -6.0°C (21°F)
Dewpoint: -7.0°C (19°F) [RH = 93%]
Pressure (altimeter): 30.41 inches Hg (1030.0 mb)
Winds: from the N (350 degrees) at 5 MPH (4 knots; 2.1 m/s)
Visibility: 1.74 miles (2.80 km)
Ceiling: 1000 feet AGL
Clouds: broken clouds at 1000 feet AGL
overcast cloud deck at 5000 feet AGL
Weather: BR FU  (mist, smoke)

METAR text: UAAA 061630Z 33002MPS 260V010 1800 R23R/P2000D R23L/P2000D BR FU BKN010 OVC050 M05/M07 Q1030 NOSIG
Conditions at: UAAA (ALMA-ATA , KZ) observed 1630 UTC 06 December 2022
Temperature: -5.0°C (23°F)
Dewpoint: -7.0°C (19°F) [RH = 86%]
Pressure (altimeter): 30.41 inches Hg (1030.0 mb)
Winds: from the NNW (330 degrees) at 5 MPH (4 knots; 2.1 m/s)
Visibility: 1.12 miles (1.80 km)
Ceiling: 1000 feet AGL
Clouds: broken clouds at 1000 feet AGL
overcast cloud deck at 5000 feet AGL
Weather: FU BR  (smoke, mist)

METAR text: UAAA 061600Z 36002MPS 1600 R23R/P2000N R23L/P2000U BR FU BKN011 OVC050 M05/M07 Q1030 NOSIG
Conditions at: UAAA (ALMA-ATA , KZ) observed 1600 UTC 06 December 2022
Temperature: -5.0°C (23°F)
Dewpoint: -7.0°C (19°F) [RH = 86%]
Pressure (altimeter): 30.41 inches Hg (1030.0 mb)
Winds: from the N (360 degrees) at 5 MPH (4 knots; 2.1 m/s)
Visibility: 0.99 miles (1.59 km)
Ceiling: 1100 feet AGL
Clouds: broken clouds at 1100 feet AGL
overcast cloud deck at 5000 feet AGL
Weather: FU BR  (smoke, mist)

METAR text: UAAA 061530Z 02003MPS 1900 R23R/P2000U R23L/P2000D BR BKN012 OVC050 M05/M07 Q1030 NOSIG
Conditions at: UAAA (ALMA-ATA , KZ) observed 1530 UTC 06 December 2022
Temperature: -5.0°C (23°F)
Dewpoint: -7.0°C (19°F) [RH = 86%]
Pressure (altimeter): 30.41 inches Hg (1030.0 mb)
Winds: from the NNE (20 degrees) at 7 MPH (6 knots; 3.1 m/s)
Visibility: 1.18 miles (1.90 km)
Ceiling: 1200 feet AGL
Clouds: broken clouds at 1200 feet AGL
overcast cloud deck at 5000 feet AGL
Weather: BR  (mist)

METAR text: UAAA 061500Z 04002MPS 2500 BR BKN014 OVC100 M05/M07 Q1030 NOSIG
Conditions at: UAAA (ALMA-ATA , KZ) observed 1500 UTC 06 December 2022
Temperature: -5.0°C (23°F)
Dewpoint: -7.0°C (19°F) [RH = 86%]
Pressure (altimeter): 30.41 inches Hg (1030.0 mb)
Winds: from the NE (40 degrees) at 5 MPH (4 knots; 2.1 m/s)
Visibility: 1.55 miles (2.49 km)
Ceiling: 1400 feet AGL
Clouds: broken clouds at 1400 feet AGL
overcast cloud deck at 10000 feet AGL
Weather: BR  (mist)

METAR text: UAAA 061430Z 05001MPS 2400 BR BKN012 OVC050 M05/M07 Q1031 NOSIG
Conditions at: UAAA (ALMA-ATA , KZ) observed 1430 UTC 06 December 2022
Temperature: -5.0°C (23°F)
Dewpoint: -7.0°C (19°F) [RH = 86%]
Pressure (altimeter): 30.44 inches Hg (1031.0 mb)
Winds: from the NE (50 degrees) at 2 MPH (2 knots; 1.0 m/s)
Visibility: 1.49 miles (2.40 km)
Ceiling: 1200 feet AGL
Clouds: broken clouds at 1200 feet AGL
overcast cloud deck at 5000 feet AGL
Weather: BR  (mist)

METAR text: UAAA 061400Z VRB01MPS 2400 BR BKN011 OVC050 M05/M07 Q1031 NOSIG
Conditions at: UAAA (ALMA-ATA , KZ) observed 1400 UTC 06 December 2022
Temperature: -5.0°C (23°F)
Dewpoint: -7.0°C (19°F) [RH = 86%]
Pressure (altimeter): 30.44 inches Hg (1031.0 mb)
Winds: variable direction winds at 2 MPH (2 knots; 1.0 m/s)
Visibility: 1.49 miles (2.40 km)
Ceiling: 1100 feet AGL
Clouds: broken clouds at 1100 feet AGL
overcast cloud deck at 5000 feet AGL
Weather: BR  (mist)

METAR text: UAAA 061330Z 17001MPS 2600 BR BKN015 OVC100 M05/M07 Q1031 NOSIG
Conditions at: UAAA (ALMA-ATA , KZ) observed 1330 UTC 06 December 2022
Temperature: -5.0°C (23°F)
Dewpoint: -7.0°C (19°F) [RH = 86%]
Pressure (altimeter): 30.44 inches Hg (1031.0 mb)
Winds: from the S (170 degrees) at 2 MPH (2 knots; 1.0 m/s)
Visibility: 1.62 miles (2.61 km)
Ceiling: 1500 feet AGL
Clouds: broken clouds at 1500 feet AGL
overcast cloud deck at 10000 feet AGL
Weather: BR  (mist)

METAR text: UAAA 061300Z 19002MPS 160V220 2500 BR OVC012 M05/M07 Q1031 NOSIG
Conditions at: UAAA (ALMA-ATA , KZ) observed 1300 UTC 06 December 2022
Temperature: -5.0°C (23°F)
Dewpoint: -7.0°C (19°F) [RH = 86%]
Pressure (altimeter): 30.44 inches Hg (1031.0 mb)
Winds: from the S (190 degrees) at 5 MPH (4 knots; 2.1 m/s)
Visibility: 1.55 miles (2.49 km)
Ceiling: 1200 feet AGL
Clouds: overcast cloud deck at 1200 feet AGL
Weather: BR  (mist)

METAR text: UAAA 061230Z 19002MPS 2700 BR OVC011 M05/M07 Q1031 NOSIG
Conditions at: UAAA (ALMA-ATA , KZ) observed 1230 UTC 06 December 2022
Temperature: -5.0°C (23°F)
Dewpoint: -7.0°C (19°F) [RH = 86%]
Pressure (altimeter): 30.44 inches Hg (1031.0 mb)
Winds: from the S (190 degrees) at 5 MPH (4 knots; 2.1 m/s)
Visibility: 1.68 miles (2.70 km)
Ceiling: 1100 feet AGL
Clouds: overcast cloud deck at 1100 feet AGL
Weather: BR  (mist)

METAR text: UAAA 061200Z VRB01MPS 3500 BR OVC010 M05/M07 Q1031 NOSIG
Conditions at: UAAA (ALMA-ATA , KZ) observed 1200 UTC 06 December 2022
Temperature: -5.0°C (23°F)
Dewpoint: -7.0°C (19°F) [RH = 86%]
Pressure (altimeter): 30.44 inches Hg (1031.0 mb)
Winds: variable direction winds at 2 MPH (2 knots; 1.0 m/s)
Visibility: 2.17 miles (3.49 km)
Ceiling: 1000 feet AGL
Clouds: overcast cloud deck at 1000 feet AGL
Weather: BR  (mist)

METAR text: UAAA 061130Z VRB01MPS 3500 BR OVC009 M05/M07 Q1031 NOSIG
Conditions at: UAAA (ALMA-ATA , KZ) observed 1130 UTC 06 December 2022
Temperature: -5.0°C (23°F)
Dewpoint: -7.0°C (19°F) [RH = 86%]
Pressure (altimeter): 30.44 inches Hg (1031.0 mb)
Winds: variable direction winds at 2 MPH (2 knots; 1.0 m/s)
Visibility: 2.17 miles (3.49 km)
Ceiling: 900 feet AGL
Clouds: overcast cloud deck at 900 feet AGL
Weather: BR  (mist)

METAR text: UAAA 061100Z VRB01MPS 3300 BR OVC009 M05/M07 Q1031 NOSIG
Conditions at: UAAA (ALMA-ATA , KZ) observed 1100 UTC 06 December 2022
Temperature: -5.0°C (23°F)
Dewpoint: -7.0°C (19°F) [RH = 86%]
Pressure (altimeter): 30.44 inches Hg (1031.0 mb)
Winds: variable direction winds at 2 MPH (2 knots; 1.0 m/s)
Visibility: 2.05 miles (3.30 km)
Ceiling: 900 feet AGL
Clouds: overcast cloud deck at 900 feet AGL
Weather: BR  (mist)

METAR text: UAAA 061030Z VRB01MPS 3700 BR OVC009 M05/M07 Q1031 NOSIG
Conditions at: UAAA (ALMA-ATA , KZ) observed 1030 UTC 06 December 2022
Temperature: -5.0°C (23°F)
Dewpoint: -7.0°C (19°F) [RH = 86%]
Pressure (altimeter): 30.44 inches Hg (1031.0 mb)
Winds: variable direction winds at 2 MPH (2 knots; 1.0 m/s)
Visibility: 2.30 miles (3.70 km)
Ceiling: 900 feet AGL
Clouds: overcast cloud deck at 900 feet AGL
Weather: BR  (mist)

METAR text: UAAA 061000Z 35002MPS 310V050 3700 BR OVC009 M05/M07 Q1030 NOSIG
Conditions at: UAAA (ALMA-ATA , KZ) observed 1000 UTC 06 December 2022
Temperature: -5.0°C (23°F)
Dewpoint: -7.0°C (19°F) [RH = 86%]
Pressure (altimeter): 30.41 inches Hg (1030.0 mb)
Winds: from the N (350 degrees) at 5 MPH (4 knots; 2.1 m/s)
Visibility: 2.30 miles (3.70 km)
Ceiling: 900 feet AGL
Clouds: overcast cloud deck at 900 feet AGL
Weather: BR  (mist)

METAR text: UAAA 060930Z 03002MPS 340V070 3100 BR OVC009 M05/M07 Q1030 NOSIG
Conditions at: UAAA (ALMA-ATA , KZ) observed 0930 UTC 06 December 2022
Temperature: -5.0°C (23°F)
Dewpoint: -7.0°C (19°F) [RH = 86%]
Pressure (altimeter): 30.41 inches Hg (1030.0 mb)
Winds: from the NNE (30 degrees) at 5 MPH (4 knots; 2.1 m/s)
Visibility: 1.93 miles (3.11 km)
Ceiling: 900 feet AGL
Clouds: overcast cloud deck at 900 feet AGL
Weather: BR  (mist)

METAR text: UAAA 060900Z 01002MPS 320V050 3500 BR OVC008 M05/M07 Q1030 NOSIG
Conditions at: UAAA (ALMA-ATA , KZ) observed 0900 UTC 06 December 2022
Temperature: -5.0°C (23°F)
Dewpoint: -7.0°C (19°F) [RH = 86%]
Pressure (altimeter): 30.41 inches Hg (1030.0 mb)
Winds: from the N (10 degrees) at 5 MPH (4 knots; 2.1 m/s)
Visibility: 2.17 miles (3.49 km)
Ceiling: 800 feet AGL
Clouds: overcast cloud deck at 800 feet AGL
Weather: BR  (mist)

METAR text: UAAA 060830Z 04002MPS 330V120 2700 BR OVC008 M05/M07 Q1030 NOSIG
Conditions at: UAAA (ALMA-ATA , KZ) observed 0830 UTC 06 December 2022
Temperature: -5.0°C (23°F)
Dewpoint: -7.0°C (19°F) [RH = 86%]
Pressure (altimeter): 30.41 inches Hg (1030.0 mb)
Winds: from the NE (40 degrees) at 5 MPH (4 knots; 2.1 m/s)
Visibility: 1.68 miles (2.70 km)
Ceiling: 800 feet AGL
Clouds: overcast cloud deck at 800 feet AGL
Weather: BR  (mist)

METAR text: UAAA 060800Z 09002MPS 330V120 3100 BR OVC006 M06/M08 Q1030 NOSIG RMK QBB190
Conditions at: UAAA (ALMA-ATA , KZ) observed 0800 UTC 06 December 2022
Temperature: -6.0°C (21°F)
Dewpoint: -8.0°C (18°F) [RH = 86%]
Pressure (altimeter): 30.41 inches Hg (1030.0 mb)
Winds: from the E (90 degrees) at 5 MPH (4 knots; 2.1 m/s)
Visibility: 1.93 miles (3.11 km)
Ceiling: 600 feet AGL
Clouds: overcast cloud deck at 600 feet AGL
Weather: BR  (mist)

METAR text: UAAA 060730Z VRB01MPS 2400 BR OVC005 M06/M07 Q1030 NOSIG RMK QBB160
Conditions at: UAAA (ALMA-ATA , KZ) observed 0730 UTC 06 December 2022
Temperature: -6.0°C (21°F)
Dewpoint: -7.0°C (19°F) [RH = 93%]
Pressure (altimeter): 30.41 inches Hg (1030.0 mb)
Winds: variable direction winds at 2 MPH (2 knots; 1.0 m/s)
Visibility: 1.49 miles (2.40 km)
Ceiling: 500 feet AGL
Clouds: overcast cloud deck at 500 feet AGL
Weather: BR  (mist)

METAR text: UAAA 060700Z 02002MPS 330V060 2700 BR BKN005 M06/M08 Q1031 NOSIG RMK QBB160
Conditions at: UAAA (ALMA-ATA , KZ) observed 0700 UTC 06 December 2022
Temperature: -6.0°C (21°F)
Dewpoint: -8.0°C (18°F) [RH = 86%]
Pressure (altimeter): 30.44 inches Hg (1031.0 mb)
Winds: from the NNE (20 degrees) at 5 MPH (4 knots; 2.1 m/s)
Visibility: 1.68 miles (2.70 km)
Ceiling: 500 feet AGL
Clouds: broken clouds at 500 feet AGL
Weather: BR  (mist)

METAR text: UAAA 060630Z 07003MPS 3200 BR BKN004 M06/M08 Q1031 NOSIG RMK QBB140
Conditions at: UAAA (ALMA-ATA , KZ) observed 0630 UTC 06 December 2022
Temperature: -6.0°C (21°F)
Dewpoint: -8.0°C (18°F) [RH = 86%]
Pressure (altimeter): 30.44 inches Hg (1031.0 mb)
Winds: from the ENE (70 degrees) at 7 MPH (6 knots; 3.1 m/s)
Visibility: 1.99 miles (3.20 km)
Ceiling: 400 feet AGL
Clouds: broken clouds at 400 feet AGL
Weather: BR  (mist)

METAR text: UAAA 060600Z 02002MPS 340V060 2500 BR BKN004 M06/M08 Q1032 NOSIG RMK QBB140
Conditions at: UAAA (ALMA-ATA , KZ) observed 0600 UTC 06 December 2022
Temperature: -6.0°C (21°F)
Dewpoint: -8.0°C (18°F) [RH = 86%]
Pressure (altimeter): 30.47 inches Hg (1032.0 mb)
Winds: from the NNE (20 degrees) at 5 MPH (4 knots; 2.1 m/s)
Visibility: 1.55 miles (2.49 km)
Ceiling: 400 feet AGL
Clouds: broken clouds at 400 feet AGL
Weather: BR  (mist)

METAR text: UAAA 060530Z 02002MPS 2200 BR SCT005 BKN100 M07/M08 Q1032 NOSIG RMK QBB150
Conditions at: UAAA (ALMA-ATA , KZ) observed 0530 UTC 06 December 2022
Temperature: -7.0°C (19°F)
Dewpoint: -8.0°C (18°F) [RH = 93%]
Pressure (altimeter): 30.47 inches Hg (1032.0 mb)
Winds: from the NNE (20 degrees) at 5 MPH (4 knots; 2.1 m/s)
Visibility: 1.37 miles (2.20 km)
Ceiling: 10000 feet AGL
Clouds: scattered clouds at 500 feet AGL
broken clouds at 10000 feet AGL
Weather: BR  (mist)

METAR text: UAAA 060500Z 03002MPS 360V060 2100 BR SCT004 BKN100 M07/M08 Q1032 NOSIG RMK QBB140
Conditions at: UAAA (ALMA-ATA , KZ) observed 0500 UTC 06 December 2022
Temperature: -7.0°C (19°F)
Dewpoint: -8.0°C (18°F) [RH = 93%]
Pressure (altimeter): 30.47 inches Hg (1032.0 mb)
Winds: from the NNE (30 degrees) at 5 MPH (4 knots; 2.1 m/s)
Visibility: 1.30 miles (2.09 km)
Ceiling: 10000 feet AGL
Clouds: scattered clouds at 400 feet AGL
broken clouds at 10000 feet AGL
Weather: BR  (mist)

METAR text: UAAA 060447Z 03002MPS 1400 R05L/1400 R05R/1900 BR SCT004 BKN100 M07/M09 Q1032 NOSIG RMK QBB140
Conditions at: UAAA (ALMA-ATA , KZ) observed 0447 UTC 06 December 2022
Temperature: -7.0°C (19°F)
Dewpoint: -9.0°C (16°F) [RH = 86%]
Pressure (altimeter): 30.47 inches Hg (1032.0 mb)
Winds: from the NNE (30 degrees) at 5 MPH (4 knots; 2.1 m/s)
Visibility: 0.87 miles (1.40 km)
Ceiling: 10000 feet AGL
Clouds: scattered clouds at 400 feet AGL
broken clouds at 10000 feet AGL
Weather: BR  (mist)

METAR text: UAAA 060430Z 03002MPS 1300 R05L/1300 R05R/1400U BR SCT019 BKN100 M08/M09 Q1032 NOSIG
Conditions at: UAAA (ALMA-ATA , KZ) observed 0430 UTC 06 December 2022
Temperature: -8.0°C (18°F)
Dewpoint: -9.0°C (16°F) [RH = 92%]
Pressure (altimeter): 30.47 inches Hg (1032.0 mb)
Winds: from the NNE (30 degrees) at 5 MPH (4 knots; 2.1 m/s)
Visibility: 0.81 miles (1.30 km)
Ceiling: 10000 feet AGL
Clouds: scattered clouds at 1900 feet AGL
broken clouds at 10000 feet AGL
Weather: BR  (mist)

METAR text: UAAA 060418Z 03002MPS 1200 R05L/1200 R05R/1300N BR SCT018 BKN100 M08/M09 Q1032 NOSIG
Conditions at: UAAA (ALMA-ATA , KZ) observed 0418 UTC 06 December 2022
Temperature: -8.0°C (18°F)
Dewpoint: -9.0°C (16°F) [RH = 92%]
Pressure (altimeter): 30.47 inches Hg (1032.0 mb)
Winds: from the NNE (30 degrees) at 5 MPH (4 knots; 2.1 m/s)
Visibility: 0.75 miles (1.21 km)
Ceiling: 10000 feet AGL
Clouds: scattered clouds at 1800 feet AGL
broken clouds at 10000 feet AGL
Weather: BR  (mist)

METAR text: UAAA 060400Z 03002MPS 1500 R05L/1500D R05R/P2000D BR BKN033 M08/M09 Q1032 NOSIG
Conditions at: UAAA (ALMA-ATA , KZ) observed 0400 UTC 06 December 2022
Temperature: -8.0°C (18°F)
Dewpoint: -9.0°C (16°F) [RH = 92%]
Pressure (altimeter): 30.47 inches Hg (1032.0 mb)
Winds: from the NNE (30 degrees) at 5 MPH (4 knots; 2.1 m/s)
Visibility: 0.93 miles (1.50 km)
Ceiling: 3300 feet AGL
Clouds: broken clouds at 3300 feet AGL
Weather: BR  (mist)

METAR text: UAAA 060330Z VRB01MPS 2500 BR BKN033 M07/M08 Q1032 NOSIG
Conditions at: UAAA (ALMA-ATA , KZ) observed 0330 UTC 06 December 2022
Temperature: -7.0°C (19°F)
Dewpoint: -8.0°C (18°F) [RH = 93%]
Pressure (altimeter): 30.47 inches Hg (1032.0 mb)
Winds: variable direction winds at 2 MPH (2 knots; 1.0 m/s)
Visibility: 1.55 miles (2.49 km)
Ceiling: 3300 feet AGL
Clouds: broken clouds at 3300 feet AGL
Weather: BR  (mist)

METAR text: UAAA 060300Z 01002MPS 340V040 4200 BR OVC033 M07/M08 Q1032 NOSIG
Conditions at: UAAA (ALMA-ATA , KZ) observed 0300 UTC 06 December 2022
Temperature: -7.0°C (19°F)
Dewpoint: -8.0°C (18°F) [RH = 93%]
Pressure (altimeter): 30.47 inches Hg (1032.0 mb)
Winds: from the N (10 degrees) at 5 MPH (4 knots; 2.1 m/s)
Visibility: 2.61 miles (4.20 km)
Ceiling: 3300 feet AGL
Clouds: overcast cloud deck at 3300 feet AGL
Weather: BR  (mist)

METAR text: UAAA 060230Z VRB01MPS 3800 -SN BR OVC033 M07/M08 Q1032 NOSIG
Conditions at: UAAA (ALMA-ATA , KZ) observed 0230 UTC 06 December 2022
Temperature: -7.0°C (19°F)
Dewpoint: -8.0°C (18°F) [RH = 93%]
Pressure (altimeter): 30.47 inches Hg (1032.0 mb)
Winds: variable direction winds at 2 MPH (2 knots; 1.0 m/s)
Visibility: 2.36 miles (3.80 km)
Ceiling: 3300 feet AGL
Clouds: overcast cloud deck at 3300 feet AGL
Weather: -SN BR  (light snow, mist)

METAR text: UAAA 060200Z 01001MPS 2600 BR OVC044 M07/M08 Q1031 NOSIG
Conditions at: UAAA (ALMA-ATA , KZ) observed 0200 UTC 06 December 2022
Temperature: -7.0°C (19°F)
Dewpoint: -8.0°C (18°F) [RH = 93%]
Pressure (altimeter): 30.44 inches Hg (1031.0 mb)
Winds: from the N (10 degrees) at 2 MPH (2 knots; 1.0 m/s)
Visibility: 1.62 miles (2.61 km)
Ceiling: 4400 feet AGL
Clouds: overcast cloud deck at 4400 feet AGL
Weather: BR  (mist)

METAR text: UAAA 060130Z 00000MPS 3400 BR OVC038 M06/M07 Q1031 NOSIG
Conditions at: UAAA (ALMA-ATA , KZ) observed 0130 UTC 06 December 2022
Temperature: -6.0°C (21°F)
Dewpoint: -7.0°C (19°F) [RH = 93%]
Pressure (altimeter): 30.44 inches Hg (1031.0 mb)
Winds: calm
Visibility: 2.11 miles (3.40 km)
Ceiling: 3800 feet AGL
Clouds: overcast cloud deck at 3800 feet AGL
Weather: BR  (mist)

METAR text: UAAA 060100Z VRB01MPS 2200 -SN BR OVC033 M06/M07 Q1031 NOSIG
Conditions at: UAAA (ALMA-ATA , KZ) observed 0100 UTC 06 December 2022
Temperature: -6.0°C (21°F)
Dewpoint: -7.0°C (19°F) [RH = 93%]
Pressure (altimeter): 30.44 inches Hg (1031.0 mb)
Winds: variable direction winds at 2 MPH (2 knots; 1.0 m/s)
Visibility: 1.37 miles (2.20 km)
Ceiling: 3300 feet AGL
Clouds: overcast cloud deck at 3300 feet AGL
Weather: -SN BR  (light snow, mist)

METAR text: UAAA 060030Z 09001MPS 2600 -SN BR OVC033 M06/M07 Q1031 NOSIG
Conditions at: UAAA (ALMA-ATA , KZ) observed 0030 UTC 06 December 2022
Temperature: -6.0°C (21°F)
Dewpoint: -7.0°C (19°F) [RH = 93%]
Pressure (altimeter): 30.44 inches Hg (1031.0 mb)
Winds: from the E (90 degrees) at 2 MPH (2 knots; 1.0 m/s)
Visibility: 1.62 miles (2.61 km)
Ceiling: 3300 feet AGL
Clouds: overcast cloud deck at 3300 feet AGL
Weather: -SN BR  (light snow, mist)

METAR text: UAAA 060000Z VRB01MPS 2800 -SN BR OVC033 M06/M07 Q1031 NOSIG
Conditions at: UAAA (ALMA-ATA , KZ) observed 0000 UTC 06 December 2022
Temperature: -6.0°C (21°F)
Dewpoint: -7.0°C (19°F) [RH = 93%]
Pressure (altimeter): 30.44 inches Hg (1031.0 mb)
Winds: variable direction winds at 2 MPH (2 knots; 1.0 m/s)
Visibility: 1.74 miles (2.80 km)
Ceiling: 3300 feet AGL
Clouds: overcast cloud deck at 3300 feet AGL
Weather: -SN BR  (light snow, mist)

METAR text: UAAA 052330Z VRB01MPS 3200 -SN BR OVC019 M06/M07 Q1031 NOSIG
Conditions at: UAAA (ALMA-ATA , KZ) observed 2330 UTC 05 December 2022
Temperature: -6.0°C (21°F)
Dewpoint: -7.0°C (19°F) [RH = 93%]
Pressure (altimeter): 30.44 inches Hg (1031.0 mb)
Winds: variable direction winds at 2 MPH (2 knots; 1.0 m/s)
Visibility: 1.99 miles (3.20 km)
Ceiling: 1900 feet AGL
Clouds: overcast cloud deck at 1900 feet AGL
Weather: -SN BR  (light snow, mist)

METAR text: UAAA 052300Z 30001MPS 2600 -SN BR OVC019 M06/M07 Q1031 NOSIG
Conditions at: UAAA (ALMA-ATA , KZ) observed 2300 UTC 05 December 2022
Temperature: -6.0°C (21°F)
Dewpoint: -7.0°C (19°F) [RH = 93%]
Pressure (altimeter): 30.44 inches Hg (1031.0 mb)
Winds: from the WNW (300 degrees) at 2 MPH (2 knots; 1.0 m/s)
Visibility: 1.62 miles (2.61 km)
Ceiling: 1900 feet AGL
Clouds: overcast cloud deck at 1900 feet AGL
Weather: -SN BR  (light snow, mist)

METAR text: UAAA 052230Z 29001MPS 3200 -SN BR BKN011 OVC033 M06/M07 Q1031 NOSIG
Conditions at: UAAA (ALMA-ATA , KZ) observed 2230 UTC 05 December 2022
Temperature: -6.0°C (21°F)
Dewpoint: -7.0°C (19°F) [RH = 93%]
Pressure (altimeter): 30.44 inches Hg (1031.0 mb)
Winds: from the WNW (290 degrees) at 2 MPH (2 knots; 1.0 m/s)
Visibility: 1.99 miles (3.20 km)
Ceiling: 1100 feet AGL
Clouds: broken clouds at 1100 feet AGL
overcast cloud deck at 3300 feet AGL
Weather: -SN BR  (light snow, mist)

METAR text: UAAA 052200Z VRB01MPS 3700 -SN BR SCT009 OVC033 M06/M07 Q1031 NOSIG
Conditions at: UAAA (ALMA-ATA , KZ) observed 2200 UTC 05 December 2022
Temperature: -6.0°C (21°F)
Dewpoint: -7.0°C (19°F) [RH = 93%]
Pressure (altimeter): 30.44 inches Hg (1031.0 mb)
Winds: variable direction winds at 2 MPH (2 knots; 1.0 m/s)
Visibility: 2.30 miles (3.70 km)
Ceiling: 3300 feet AGL
Clouds: scattered clouds at 900 feet AGL
overcast cloud deck at 3300 feet AGL
Weather: -SN BR  (light snow, mist)

Forecast for: UAAA (ALMA-ATA , KZ)
Text: TAF UAAA 070501Z 0706/0806 34003MPS 5000 BR FU BKN011 OVC020CB TXM03/0707Z TNM08/0801Z
Forecast period: 0600 to 1200 UTC 07 December 2022
Forecast type: FROM: standard forecast or significant change
Winds: from the NNW (340 degrees) at 7 MPH (6 knots; 3.1 m/s)
Visibility: 3 miles (5 km)
Ceiling: 1100 feet AGL
Clouds: broken clouds at 1100 feet AGL
overcast cloud deck at 2000 feet AGL
Weather: BR FU  (mist, smoke)
Text: TEMPO 0706/0712 03003G12MPS 2500 -SHSN BR BKN006 OVC011CB
Forecast period: 0600 to 1200 UTC 07 December 2022
Forecast type: TEMPORARY: The following changes expected for less than half the time period
Winds: from the NNE (30 degrees) at 7 MPH (6 knots; 3.1 m/s)
gusting to 26 MPH (23 knots; 11.8 m/s)
Visibility: 1.55 miles (2.49 km)
Ceiling: 600 feet AGL
Clouds: broken clouds at 600 feet AGL
overcast cloud deck at 1100 feet AGL
Weather: -SHSN BR  (light snow showers, mist)
Text: BECMG 0712/0713 03003MPS 2200
Forecast period: 1200 UTC 07 December 2022 to 0600 UTC 08 December 2022
Forecast type: BECOMING: Conditions expected to become as follows by 1300 UTC 07 December 2022
Winds: from the NNE (30 degrees) at 7 MPH (6 knots; 3.1 m/s)
Visibility: 1.37 miles (2.20 km)
Ceiling: 1100 feet AGL
Clouds: broken clouds at 1100 feet AGL
overcast cloud deck at 2000 feet AGL
Weather: BR FU  (mist, smoke)
Text: TEMPO 0712/0716 14003MPS 1200 -SHSN BR BKN003 OVC011CB
Forecast period: 1200 to 1600 UTC 07 December 2022
Forecast type: TEMPORARY: The following changes expected for less than half the time period
Winds: from the SE (140 degrees) at 7 MPH (6 knots; 3.1 m/s)
Visibility: 0.75 miles (1.21 km)
Ceiling: 300 feet AGL
Clouds: broken clouds at 300 feet AGL
overcast cloud deck at 1100 feet AGL
Weather: -SHSN BR  (light snow showers, mist)
Text: TEMPO 0716/0802 24003MPS 0700 -SHSN FZFG BKN002 OVC011CB
Forecast period: 1600 UTC 07 December 2022 to 0200 UTC 08 December 2022
Forecast type: TEMPORARY: The following changes expected for less than half the time period
Winds: from the WSW (240 degrees) at 7 MPH (6 knots; 3.1 m/s)
Visibility: 0.43 miles (0.69 km)
Ceiling: 200 feet AGL
Clouds: broken clouds at 200 feet AGL
overcast cloud deck at 1100 feet AGL
Weather: -SHSN FZFG  (light snow showers, freezing fog)